createdAt,value
2018-07-14T00:08:01.031Z,21.3
2018-07-14T00:24:49.344Z,21.3
2018-07-14T00:41:37.929Z,21.6
2018-07-14T00:58:26.581Z,21.6
2018-07-14T01:15:15.258Z,21.0
2018-07-14T01:32:03.353Z,21.0
2018-07-14T01:48:51.420Z,21.0
2018-07-14T02:05:39.654Z,21.3
2018-07-14T02:22:27.967Z,21.0
2018-07-14T02:39:16.046Z,20.6
2018-07-14T02:56:03.621Z,20.3
2018-07-14T03:12:51.360Z,21.0
2018-07-14T03:29:39.417Z,20.6
2018-07-14T03:46:27.127Z,21.0
2018-07-14T04:03:15.254Z,21.0
2018-07-14T04:20:03.302Z,20.6
2018-07-14T04:36:51.082Z,20.6
2018-07-14T04:43:34.060Z,20.0
2018-07-14T04:50:16.801Z,19.4
2018-07-14T05:00:20.784Z,20.0
2018-07-14T05:15:26.994Z,20.6
2018-07-14T05:25:31.977Z,21.3
2018-07-14T05:35:37.309Z,21.9
2018-07-14T05:52:26.616Z,21.6
2018-07-14T06:07:34.261Z,21.0
2018-07-14T06:24:22.315Z,21.3
2018-07-14T06:37:49.225Z,21.9
2018-07-14T06:54:38.421Z,21.9
2018-07-14T07:11:27.557Z,21.9
2018-07-14T07:28:16.692Z,21.6
2018-07-14T07:45:05.325Z,21.6
2018-07-14T08:01:54.351Z,21.9
2018-07-14T08:13:41.071Z,22.6
2018-07-14T08:23:46.960Z,21.9
2018-07-14T08:40:36.322Z,21.9
2018-07-14T08:57:25.735Z,22.2
2018-07-14T09:14:15.672Z,22.6
2018-07-14T09:31:05.547Z,22.6
2018-07-14T09:47:55.733Z,22.9
2018-07-14T10:04:45.920Z,22.9
2018-07-14T10:21:36.486Z,23.2
2018-07-14T10:38:27.191Z,23.2
2018-07-14T10:55:18.181Z,23.5
2018-07-14T11:12:09.351Z,23.8
2018-07-14T11:29:00.917Z,23.8
2018-07-14T11:45:52.122Z,23.8
2018-07-14T12:02:43.774Z,24.2
2018-07-14T12:19:35.639Z,24.2
2018-07-14T12:36:27.597Z,24.5
2018-07-14T12:53:19.699Z,24.5
2018-07-14T13:10:12.143Z,24.5
2018-07-14T13:27:04.759Z,24.8
2018-07-14T13:43:57.659Z,24.8
2018-07-14T14:00:50.075Z,24.8
2018-07-14T14:17:49.133Z,25.1
2018-07-14T14:34:35.895Z,25.1
2018-07-14T14:51:29.175Z,25.1
2018-07-14T15:08:23.014Z,25.1
2018-07-14T15:25:15.499Z,25.1
2018-07-14T15:42:08.401Z,25.1
2018-07-14T15:59:01.346Z,25.1
2018-07-14T16:12:31.715Z,25.1
2018-07-14T16:29:24.890Z,25.1
2018-07-14T16:46:17.963Z,25.1
2018-07-14T17:03:11.084Z,25.1
2018-07-14T17:20:04.119Z,25.1
2018-07-14T17:36:57.090Z,24.8
2018-07-14T17:53:49.801Z,24.5
2018-07-14T18:10:42.226Z,24.5
2018-07-14T18:27:34.526Z,24.2
2018-07-14T18:44:26.599Z,24.2
2018-07-14T19:01:18.695Z,23.8
2018-07-14T19:18:10.444Z,23.8
2018-07-14T19:35:02.212Z,23.5
2018-07-14T19:51:53.869Z,23.5
2018-07-14T20:07:04.196Z,22.9
2018-07-14T20:23:54.753Z,22.6
2018-07-14T20:40:45.129Z,22.2
2018-07-14T20:57:35.314Z,22.2
2018-07-14T21:14:25.096Z,21.9
2018-07-14T21:31:14.958Z,21.9
2018-07-14T21:48:04.114Z,21.9
2018-07-14T22:04:53.304Z,22.2
2018-07-14T22:21:42.396Z,21.9
2018-07-14T22:38:31.897Z,22.6
2018-07-14T22:55:21.692Z,22.9
2018-07-14T23:12:11.813Z,22.9
2018-07-14T23:29:02.120Z,22.6
2018-07-14T23:45:52.158Z,22.2
